sensor_id;sensor_type;location;lat;lon;timestamp;P1;durP1;ratioP1;P2;durP2;ratioP2
20721;SDS011;10522;52.198;9.890;2023-07-28T00:02:06;6.63;;;5.67;;
20721;SDS011;10522;52.198;9.890;2023-07-28T00:04:34;12.07;;;5.80;;
20721;SDS011;10522;52.198;9.890;2023-07-28T00:07:00;10.93;;;6.33;;
20721;SDS011;10522;52.198;9.890;2023-07-28T00:09:26;6.63;;;6.03;;
20721;SDS011;10522;52.198;9.890;2023-07-28T00:11:52;11.93;;;6.67;;
20721;SDS011;10522;52.198;9.890;2023-07-28T00:14:17;7.80;;;5.73;;
20721;SDS011;10522;52.198;9.890;2023-07-28T00:16:43;10.03;;;6.37;;
20721;SDS011;10522;52.198;9.890;2023-07-28T00:19:09;6.43;;;5.83;;
20721;SDS011;10522;52.198;9.890;2023-07-28T00:21:34;7.30;;;6.03;;
20721;SDS011;10522;52.198;9.890;2023-07-28T00:24:00;7.30;;;6.53;;
20721;SDS011;10522;52.198;9.890;2023-07-28T00:26:26;6.30;;;5.80;;
20721;SDS011;10522;52.198;9.890;2023-07-28T00:28:51;9.43;;;5.77;;
20721;SDS011;10522;52.198;9.890;2023-07-28T00:31:17;8.33;;;6.27;;
20721;SDS011;10522;52.198;9.890;2023-07-28T00:33:42;6.67;;;5.80;;
20721;SDS011;10522;52.198;9.890;2023-07-28T00:36:08;6.50;;;5.90;;
20721;SDS011;10522;52.198;9.890;2023-07-28T00:38:34;6.60;;;5.93;;
20721;SDS011;10522;52.198;9.890;2023-07-28T00:40:59;6.30;;;5.77;;
20721;SDS011;10522;52.198;9.890;2023-07-28T00:43:25;6.73;;;5.70;;
20721;SDS011;10522;52.198;9.890;2023-07-28T00:45:50;7.13;;;5.47;;
20721;SDS011;10522;52.198;9.890;2023-07-28T00:48:17;6.97;;;4.93;;
20721;SDS011;10522;52.198;9.890;2023-07-28T00:50:46;7.37;;;5.13;;
20721;SDS011;10522;52.198;9.890;2023-07-28T00:53:13;7.57;;;5.37;;
20721;SDS011;10522;52.198;9.890;2023-07-28T00:55:38;7.47;;;6.10;;
20721;SDS011;10522;52.198;9.890;2023-07-28T00:58:04;8.23;;;5.67;;
20721;SDS011;10522;52.198;9.890;2023-07-28T01:00:30;6.53;;;5.17;;
20721;SDS011;10522;52.198;9.890;2023-07-28T01:02:56;5.50;;;5.00;;
20721;SDS011;10522;52.198;9.890;2023-07-28T01:05:22;5.93;;;5.40;;
20721;SDS011;10522;52.198;9.890;2023-07-28T01:08:06;6.03;;;5.17;;
20721;SDS011;10522;52.198;9.890;2023-07-28T01:10:36;10.50;;;5.27;;
20721;SDS011;10522;52.198;9.890;2023-07-28T01:13:03;6.63;;;4.80;;
20721;SDS011;10522;52.198;9.890;2023-07-28T01:15:29;7.10;;;4.93;;
20721;SDS011;10522;52.198;9.890;2023-07-28T01:17:54;5.50;;;4.50;;
20721;SDS011;10522;52.198;9.890;2023-07-28T01:20:21;5.03;;;4.53;;
20721;SDS011;10522;52.198;9.890;2023-07-28T01:28:20;6.20;;;4.20;;
20721;SDS011;10522;52.198;9.890;2023-07-28T01:30:47;7.67;;;4.47;;
20721;SDS011;10522;52.198;9.890;2023-07-28T01:33:13;4.73;;;4.10;;
20721;SDS011;10522;52.198;9.890;2023-07-28T01:35:38;5.17;;;4.40;;
20721;SDS011;10522;52.198;9.890;2023-07-28T01:38:04;4.80;;;3.90;;
20721;SDS011;10522;52.198;9.890;2023-07-28T01:40:30;4.40;;;3.80;;
20721;SDS011;10522;52.198;9.890;2023-07-28T01:42:56;5.90;;;3.63;;
20721;SDS011;10522;52.198;9.890;2023-07-28T01:45:21;5.10;;;3.60;;
20721;SDS011;10522;52.198;9.890;2023-07-28T01:47:47;4.90;;;3.40;;
20721;SDS011;10522;52.198;9.890;2023-07-28T01:50:12;9.37;;;4.30;;
20721;SDS011;10522;52.198;9.890;2023-07-28T01:52:38;5.10;;;3.00;;
20721;SDS011;10522;52.198;9.890;2023-07-28T01:55:03;9.20;;;3.10;;
20721;SDS011;10522;52.198;9.890;2023-07-28T01:57:32;3.57;;;2.50;;
20721;SDS011;10522;52.198;9.890;2023-07-28T01:59:59;5.10;;;2.73;;
20721;SDS011;10522;52.198;9.890;2023-07-28T02:02:24;2.43;;;1.87;;
20721;SDS011;10522;52.198;9.890;2023-07-28T02:04:50;2.47;;;2.27;;
20721;SDS011;10522;52.198;9.890;2023-07-28T02:07:15;3.80;;;1.97;;
20721;SDS011;10522;52.198;9.890;2023-07-28T02:09:41;3.20;;;2.50;;
20721;SDS011;10522;52.198;9.890;2023-07-28T02:12:07;6.33;;;2.30;;
20721;SDS011;10522;52.198;9.890;2023-07-28T02:14:33;1.93;;;1.80;;
20721;SDS011;10522;52.198;9.890;2023-07-28T02:16:58;3.83;;;2.10;;
20721;SDS011;10522;52.198;9.890;2023-07-28T02:19:24;3.50;;;2.07;;
20721;SDS011;10522;52.198;9.890;2023-07-28T02:21:50;2.83;;;2.60;;
20721;SDS011;10522;52.198;9.890;2023-07-28T02:24:15;2.53;;;2.33;;
20721;SDS011;10522;52.198;9.890;2023-07-28T02:26:41;2.87;;;1.97;;
20721;SDS011;10522;52.198;9.890;2023-07-28T02:29:06;6.17;;;2.40;;
20721;SDS011;10522;52.198;9.890;2023-07-28T02:31:32;4.93;;;2.17;;
20721;SDS011;10522;52.198;9.890;2023-07-28T02:33:58;3.53;;;2.33;;
20721;SDS011;10522;52.198;9.890;2023-07-28T02:36:23;2.60;;;2.40;;
20721;SDS011;10522;52.198;9.890;2023-07-28T02:38:49;3.43;;;1.97;;
20721;SDS011;10522;52.198;9.890;2023-07-28T02:41:14;6.33;;;2.57;;
20721;SDS011;10522;52.198;9.890;2023-07-28T02:43:40;3.73;;;2.37;;
20721;SDS011;10522;52.198;9.890;2023-07-28T02:46:06;6.57;;;2.60;;
20721;SDS011;10522;52.198;9.890;2023-07-28T02:48:32;3.67;;;2.23;;
20721;SDS011;10522;52.198;9.890;2023-07-28T02:50:57;2.63;;;2.40;;
20721;SDS011;10522;52.198;9.890;2023-07-28T02:53:23;4.17;;;2.27;;
20721;SDS011;10522;52.198;9.890;2023-07-28T02:55:49;5.60;;;2.37;;
20721;SDS011;10522;52.198;9.890;2023-07-28T02:58:15;3.27;;;2.00;;
20721;SDS011;10522;52.198;9.890;2023-07-28T03:00:41;2.33;;;2.13;;
20721;SDS011;10522;52.198;9.890;2023-07-28T03:03:08;2.13;;;1.80;;
20721;SDS011;10522;52.198;9.890;2023-07-28T03:05:37;6.03;;;2.20;;
20721;SDS011;10522;52.198;9.890;2023-07-28T03:08:03;4.17;;;1.70;;
20721;SDS011;10522;52.198;9.890;2023-07-28T03:10:29;1.83;;;1.67;;
20721;SDS011;10522;52.198;9.890;2023-07-28T03:12:55;3.83;;;2.03;;
20721;SDS011;10522;52.198;9.890;2023-07-28T03:15:21;3.03;;;1.67;;
20721;SDS011;10522;52.198;9.890;2023-07-28T03:17:47;2.30;;;1.93;;
20721;SDS011;10522;52.198;9.890;2023-07-28T03:20:13;3.13;;;2.10;;
20721;SDS011;10522;52.198;9.890;2023-07-28T03:22:39;4.60;;;2.03;;
20721;SDS011;10522;52.198;9.890;2023-07-28T03:25:05;7.40;;;2.60;;
20721;SDS011;10522;52.198;9.890;2023-07-28T03:27:31;3.40;;;1.97;;
20721;SDS011;10522;52.198;9.890;2023-07-28T03:29:56;2.10;;;1.90;;
20721;SDS011;10522;52.198;9.890;2023-07-28T03:32:22;2.30;;;2.00;;
20721;SDS011;10522;52.198;9.890;2023-07-28T03:34:48;5.10;;;2.27;;
20721;SDS011;10522;52.198;9.890;2023-07-28T03:37:13;3.30;;;2.43;;
20721;SDS011;10522;52.198;9.890;2023-07-28T03:39:39;4.23;;;2.07;;
20721;SDS011;10522;52.198;9.890;2023-07-28T03:42:05;3.03;;;2.10;;
20721;SDS011;10522;52.198;9.890;2023-07-28T03:44:31;4.83;;;2.50;;
20721;SDS011;10522;52.198;9.890;2023-07-28T03:46:57;2.10;;;1.90;;
20721;SDS011;10522;52.198;9.890;2023-07-28T03:49:22;2.97;;;1.97;;
20721;SDS011;10522;52.198;9.890;2023-07-28T03:51:48;4.43;;;2.43;;
20721;SDS011;10522;52.198;9.890;2023-07-28T03:54:14;2.90;;;2.60;;
20721;SDS011;10522;52.198;9.890;2023-07-28T03:56:39;6.00;;;2.73;;
20721;SDS011;10522;52.198;9.890;2023-07-28T03:59:05;2.80;;;2.50;;
20721;SDS011;10522;52.198;9.890;2023-07-28T04:01:30;6.00;;;2.60;;
20721;SDS011;10522;52.198;9.890;2023-07-28T04:03:56;3.37;;;2.40;;
20721;SDS011;10522;52.198;9.890;2023-07-28T04:06:39;2.80;;;2.60;;
20721;SDS011;10522;52.198;9.890;2023-07-28T04:09:06;6.23;;;2.30;;
20721;SDS011;10522;52.198;9.890;2023-07-28T04:11:33;5.47;;;2.60;;
20721;SDS011;10522;52.198;9.890;2023-07-28T04:13:58;4.63;;;2.67;;
20721;SDS011;10522;52.198;9.890;2023-07-28T04:16:24;3.00;;;2.70;;
20721;SDS011;10522;52.198;9.890;2023-07-28T04:18:50;4.37;;;3.07;;
20721;SDS011;10522;52.198;9.890;2023-07-28T04:21:15;2.83;;;2.63;;
20721;SDS011;10522;52.198;9.890;2023-07-28T04:23:41;5.33;;;2.57;;
20721;SDS011;10522;52.198;9.890;2023-07-28T04:26:06;4.17;;;2.33;;
20721;SDS011;10522;52.198;9.890;2023-07-28T04:28:32;1.93;;;1.80;;
20721;SDS011;10522;52.198;9.890;2023-07-28T04:30:58;3.53;;;2.07;;
20721;SDS011;10522;52.198;9.890;2023-07-28T04:33:23;2.63;;;1.53;;
20721;SDS011;10522;52.198;9.890;2023-07-28T04:35:49;1.83;;;1.60;;
20721;SDS011;10522;52.198;9.890;2023-07-28T04:38:15;4.60;;;1.40;;
20721;SDS011;10522;52.198;9.890;2023-07-28T04:40:42;2.07;;;1.80;;
20721;SDS011;10522;52.198;9.890;2023-07-28T04:43:07;2.13;;;1.57;;
20721;SDS011;10522;52.198;9.890;2023-07-28T04:45:33;1.80;;;1.70;;
20721;SDS011;10522;52.198;9.890;2023-07-28T04:47:58;3.87;;;1.67;;
20721;SDS011;10522;52.198;9.890;2023-07-28T04:50:24;2.93;;;1.70;;
20721;SDS011;10522;52.198;9.890;2023-07-28T04:52:50;2.90;;;1.70;;
20721;SDS011;10522;52.198;9.890;2023-07-28T04:55:15;6.20;;;1.60;;
20721;SDS011;10522;52.198;9.890;2023-07-28T04:57:41;4.53;;;2.03;;
20721;SDS011;10522;52.198;9.890;2023-07-28T05:00:07;2.50;;;2.27;;
20721;SDS011;10522;52.198;9.890;2023-07-28T05:02:33;4.13;;;1.87;;
20721;SDS011;10522;52.198;9.890;2023-07-28T05:04:59;2.47;;;2.27;;
20721;SDS011;10522;52.198;9.890;2023-07-28T05:07:24;3.80;;;2.30;;
20721;SDS011;10522;52.198;9.890;2023-07-28T05:09:50;4.70;;;2.97;;
20721;SDS011;10522;52.198;9.890;2023-07-28T05:12:16;3.63;;;2.57;;
20721;SDS011;10522;52.198;9.890;2023-07-28T05:14:41;4.07;;;2.77;;
20721;SDS011;10522;52.198;9.890;2023-07-28T05:17:07;3.20;;;2.90;;
20721;SDS011;10522;52.198;9.890;2023-07-28T05:19:33;3.40;;;3.03;;
20721;SDS011;10522;52.198;9.890;2023-07-28T05:21:59;5.80;;;3.00;;
20721;SDS011;10522;52.198;9.890;2023-07-28T05:24:25;4.80;;;3.83;;
20721;SDS011;10522;52.198;9.890;2023-07-28T05:26:50;3.33;;;3.10;;
20721;SDS011;10522;52.198;9.890;2023-07-28T05:29:16;3.63;;;3.33;;
20721;SDS011;10522;52.198;9.890;2023-07-28T05:31:42;4.90;;;3.70;;
20721;SDS011;10522;52.198;9.890;2023-07-28T05:34:07;3.93;;;3.50;;
20721;SDS011;10522;52.198;9.890;2023-07-28T05:36:33;5.70;;;3.43;;
20721;SDS011;10522;52.198;9.890;2023-07-28T05:38:58;6.00;;;3.90;;
20721;SDS011;10522;52.198;9.890;2023-07-28T05:41:24;4.00;;;3.60;;
20721;SDS011;10522;52.198;9.890;2023-07-28T05:43:50;4.40;;;3.73;;
20721;SDS011;10522;52.198;9.890;2023-07-28T05:46:15;5.10;;;3.50;;
20721;SDS011;10522;52.198;9.890;2023-07-28T05:48:41;4.80;;;3.77;;
20721;SDS011;10522;52.198;9.890;2023-07-28T05:51:07;4.57;;;3.77;;
20721;SDS011;10522;52.198;9.890;2023-07-28T05:53:32;4.17;;;3.77;;
20721;SDS011;10522;52.198;9.890;2023-07-28T05:55:58;5.50;;;3.37;;
20721;SDS011;10522;52.198;9.890;2023-07-28T05:58:23;4.30;;;3.90;;
20721;SDS011;10522;52.198;9.890;2023-07-28T06:00:49;4.07;;;3.63;;
20721;SDS011;10522;52.198;9.890;2023-07-28T06:03:15;7.47;;;3.73;;
20721;SDS011;10522;52.198;9.890;2023-07-28T06:05:41;4.77;;;3.70;;
20721;SDS011;10522;52.198;9.890;2023-07-28T06:08:07;5.03;;;3.60;;
20721;SDS011;10522;52.198;9.890;2023-07-28T06:10:33;11.77;;;4.37;;
20721;SDS011;10522;52.198;9.890;2023-07-28T06:12:59;3.60;;;3.27;;
20721;SDS011;10522;52.198;9.890;2023-07-28T06:15:25;8.07;;;4.30;;
20721;SDS011;10522;52.198;9.890;2023-07-28T06:17:50;4.77;;;4.27;;
20721;SDS011;10522;52.198;9.890;2023-07-28T06:20:16;6.50;;;4.30;;
20721;SDS011;10522;52.198;9.890;2023-07-28T06:22:42;4.73;;;3.60;;
20721;SDS011;10522;52.198;9.890;2023-07-28T06:25:07;3.87;;;3.57;;
20721;SDS011;10522;52.198;9.890;2023-07-28T06:27:33;5.20;;;3.80;;
20721;SDS011;10522;52.198;9.890;2023-07-28T06:29:59;6.80;;;4.00;;
20721;SDS011;10522;52.198;9.890;2023-07-28T06:32:25;3.63;;;3.33;;
20721;SDS011;10522;52.198;9.890;2023-07-28T06:34:52;4.27;;;3.87;;
20721;SDS011;10522;52.198;9.890;2023-07-28T06:37:19;4.53;;;3.77;;
20721;SDS011;10522;52.198;9.890;2023-07-28T06:39:44;5.67;;;4.33;;
20721;SDS011;10522;52.198;9.890;2023-07-28T06:42:10;6.37;;;4.33;;
20721;SDS011;10522;52.198;9.890;2023-07-28T06:44:36;6.10;;;3.87;;
20721;SDS011;10522;52.198;9.890;2023-07-28T06:47:02;6.80;;;4.20;;
20721;SDS011;10522;52.198;9.890;2023-07-28T06:49:28;4.63;;;4.00;;
20721;SDS011;10522;52.198;9.890;2023-07-28T06:51:54;5.17;;;4.27;;
20721;SDS011;10522;52.198;9.890;2023-07-28T06:54:20;6.43;;;4.47;;
20721;SDS011;10522;52.198;9.890;2023-07-28T06:56:45;6.17;;;4.53;;
20721;SDS011;10522;52.198;9.890;2023-07-28T06:59:11;5.33;;;4.83;;
20721;SDS011;10522;52.198;9.890;2023-07-28T07:01:37;7.13;;;5.20;;
20721;SDS011;10522;52.198;9.890;2023-07-28T07:04:02;7.23;;;4.70;;
20721;SDS011;10522;52.198;9.890;2023-07-28T07:06:29;5.03;;;4.57;;
20721;SDS011;10522;52.198;9.890;2023-07-28T07:08:55;4.60;;;4.20;;
20721;SDS011;10522;52.198;9.890;2023-07-28T07:11:21;6.60;;;5.00;;
20721;SDS011;10522;52.198;9.890;2023-07-28T07:13:46;5.60;;;5.10;;
20721;SDS011;10522;52.198;9.890;2023-07-28T07:16:18;5.63;;;4.93;;
20721;SDS011;10522;52.198;9.890;2023-07-28T07:18:44;5.07;;;4.50;;
20721;SDS011;10522;52.198;9.890;2023-07-28T07:21:10;6.57;;;5.00;;
20721;SDS011;10522;52.198;9.890;2023-07-28T07:23:36;6.97;;;5.23;;
20721;SDS011;10522;52.198;9.890;2023-07-28T07:26:02;9.33;;;5.13;;
20721;SDS011;10522;52.198;9.890;2023-07-28T07:28:28;5.53;;;5.03;;
20721;SDS011;10522;52.198;9.890;2023-07-28T07:30:53;5.23;;;4.73;;
20721;SDS011;10522;52.198;9.890;2023-07-28T07:33:23;5.00;;;4.60;;
20721;SDS011;10522;52.198;9.890;2023-07-28T07:35:49;5.97;;;5.37;;
20721;SDS011;10522;52.198;9.890;2023-07-28T07:38:15;5.37;;;4.97;;
20721;SDS011;10522;52.198;9.890;2023-07-28T07:40:40;6.27;;;4.90;;
20721;SDS011;10522;52.198;9.890;2023-07-28T07:43:06;5.33;;;4.87;;
20721;SDS011;10522;52.198;9.890;2023-07-28T07:45:31;13.17;;;5.07;;
20721;SDS011;10522;52.198;9.890;2023-07-28T07:47:58;4.53;;;4.07;;
20721;SDS011;10522;52.198;9.890;2023-07-28T07:50:24;5.47;;;4.97;;
20721;SDS011;10522;52.198;9.890;2023-07-28T07:52:50;6.03;;;4.47;;
20721;SDS011;10522;52.198;9.890;2023-07-28T07:55:15;6.13;;;4.73;;
20721;SDS011;10522;52.198;9.890;2023-07-28T07:57:41;4.77;;;4.37;;
20721;SDS011;10522;52.198;9.890;2023-07-28T08:00:07;5.07;;;4.57;;
20721;SDS011;10522;52.198;9.890;2023-07-28T08:02:33;5.73;;;4.00;;
20721;SDS011;10522;52.198;9.890;2023-07-28T08:04:59;3.80;;;3.50;;
20721;SDS011;10522;52.198;9.890;2023-07-28T08:07:25;3.80;;;3.50;;
20721;SDS011;10522;52.198;9.890;2023-07-28T08:09:51;4.13;;;3.30;;
20721;SDS011;10522;52.198;9.890;2023-07-28T08:12:17;7.10;;;4.20;;
20721;SDS011;10522;52.198;9.890;2023-07-28T08:14:43;5.80;;;3.50;;
20721;SDS011;10522;52.198;9.890;2023-07-28T08:17:11;9.00;;;4.13;;
20721;SDS011;10522;52.198;9.890;2023-07-28T08:19:37;4.57;;;4.17;;
20721;SDS011;10522;52.198;9.890;2023-07-28T08:22:02;4.30;;;3.33;;
20721;SDS011;10522;52.198;9.890;2023-07-28T08:24:28;3.83;;;3.53;;
20721;SDS011;10522;52.198;9.890;2023-07-28T08:26:54;4.33;;;3.17;;
20721;SDS011;10522;52.198;9.890;2023-07-28T08:29:20;5.17;;;3.37;;
20721;SDS011;10522;52.198;9.890;2023-07-28T08:31:46;4.77;;;3.57;;
20721;SDS011;10522;52.198;9.890;2023-07-28T08:34:12;3.90;;;3.33;;
20721;SDS011;10522;52.198;9.890;2023-07-28T08:36:37;5.27;;;3.17;;
20721;SDS011;10522;52.198;9.890;2023-07-28T08:39:05;7.07;;;3.30;;
20721;SDS011;10522;52.198;9.890;2023-07-28T08:41:30;3.30;;;2.90;;
20721;SDS011;10522;52.198;9.890;2023-07-28T08:43:56;2.97;;;2.67;;
20721;SDS011;10522;52.198;9.890;2023-07-28T08:46:22;2.90;;;2.70;;
20721;SDS011;10522;52.198;9.890;2023-07-28T08:48:48;4.30;;;2.90;;
20721;SDS011;10522;52.198;9.890;2023-07-28T08:51:13;5.67;;;3.03;;
20721;SDS011;10522;52.198;9.890;2023-07-28T08:53:39;3.33;;;3.00;;
20721;SDS011;10522;52.198;9.890;2023-07-28T08:56:05;3.80;;;2.57;;
20721;SDS011;10522;52.198;9.890;2023-07-28T08:58:31;4.17;;;3.03;;
20721;SDS011;10522;52.198;9.890;2023-07-28T09:00:57;3.03;;;2.60;;
20721;SDS011;10522;52.198;9.890;2023-07-28T09:03:26;3.73;;;2.83;;
20721;SDS011;10522;52.198;9.890;2023-07-28T09:05:53;2.73;;;2.53;;
20721;SDS011;10522;52.198;9.890;2023-07-28T09:08:25;4.80;;;2.40;;
20721;SDS011;10522;52.198;9.890;2023-07-28T09:10:51;2.60;;;2.30;;
20721;SDS011;10522;52.198;9.890;2023-07-28T09:13:17;2.90;;;2.70;;
20721;SDS011;10522;52.198;9.890;2023-07-28T09:15:43;4.30;;;2.50;;
20721;SDS011;10522;52.198;9.890;2023-07-28T09:18:10;2.73;;;2.50;;
20721;SDS011;10522;52.198;9.890;2023-07-28T09:20:38;3.60;;;2.77;;
20721;SDS011;10522;52.198;9.890;2023-07-28T09:23:06;4.33;;;2.97;;
20721;SDS011;10522;52.198;9.890;2023-07-28T09:25:33;2.80;;;2.60;;
20721;SDS011;10522;52.198;9.890;2023-07-28T09:28:03;6.07;;;3.70;;
20721;SDS011;10522;52.198;9.890;2023-07-28T09:30:43;3.10;;;2.50;;
20721;SDS011;10522;52.198;9.890;2023-07-28T09:33:11;3.87;;;2.80;;
20721;SDS011;10522;52.198;9.890;2023-07-28T09:35:42;3.17;;;2.87;;
20721;SDS011;10522;52.198;9.890;2023-07-28T09:38:15;4.33;;;2.80;;
20721;SDS011;10522;52.198;9.890;2023-07-28T09:40:41;3.80;;;2.83;;
20721;SDS011;10522;52.198;9.890;2023-07-28T09:43:08;2.67;;;2.47;;
20721;SDS011;10522;52.198;9.890;2023-07-28T09:45:35;3.30;;;2.97;;
20721;SDS011;10522;52.198;9.890;2023-07-28T09:48:01;2.87;;;2.50;;
20721;SDS011;10522;52.198;9.890;2023-07-28T09:50:32;2.13;;;2.03;;
20721;SDS011;10522;52.198;9.890;2023-07-28T09:53:01;3.23;;;2.30;;
20721;SDS011;10522;52.198;9.890;2023-07-28T09:55:28;3.10;;;2.80;;
20721;SDS011;10522;52.198;9.890;2023-07-28T09:57:55;2.70;;;2.50;;
20721;SDS011;10522;52.198;9.890;2023-07-28T10:00:22;3.03;;;2.20;;
20721;SDS011;10522;52.198;9.890;2023-07-28T10:02:48;5.10;;;2.50;;
20721;SDS011;10522;52.198;9.890;2023-07-28T10:05:15;2.70;;;2.50;;
20721;SDS011;10522;52.198;9.890;2023-07-28T10:07:43;4.40;;;2.70;;
20721;SDS011;10522;52.198;9.890;2023-07-28T10:10:10;2.70;;;2.50;;
20721;SDS011;10522;52.198;9.890;2023-07-28T10:12:47;3.50;;;2.27;;
20721;SDS011;10522;52.198;9.890;2023-07-28T10:15:15;5.03;;;2.80;;
20721;SDS011;10522;52.198;9.890;2023-07-28T10:17:43;3.20;;;2.67;;
20721;SDS011;10522;52.198;9.890;2023-07-28T10:20:36;3.37;;;2.30;;
20721;SDS011;10522;52.198;9.890;2023-07-28T10:23:13;2.63;;;2.43;;
20721;SDS011;10522;52.198;9.890;2023-07-28T10:25:42;3.23;;;2.50;;
20721;SDS011;10522;52.198;9.890;2023-07-28T10:28:28;2.40;;;2.20;;
20721;SDS011;10522;52.198;9.890;2023-07-28T10:30:56;2.80;;;2.50;;
20721;SDS011;10522;52.198;9.890;2023-07-28T10:33:26;2.80;;;2.47;;
20721;SDS011;10522;52.198;9.890;2023-07-28T10:38:51;2.83;;;2.60;;
20721;SDS011;10522;52.198;9.890;2023-07-28T10:41:36;3.80;;;2.30;;
20721;SDS011;10522;52.198;9.890;2023-07-28T10:44:03;2.47;;;1.90;;
20721;SDS011;10522;52.198;9.890;2023-07-28T10:46:30;3.20;;;2.20;;
20721;SDS011;10522;52.198;9.890;2023-07-28T10:49:03;3.30;;;2.30;;
20721;SDS011;10522;52.198;9.890;2023-07-28T10:51:30;2.00;;;1.90;;
20721;SDS011;10522;52.198;9.890;2023-07-28T10:53:59;2.67;;;2.47;;
20721;SDS011;10522;52.198;9.890;2023-07-28T10:56:25;2.30;;;2.10;;
20721;SDS011;10522;52.198;9.890;2023-07-28T10:58:58;2.60;;;2.40;;
20721;SDS011;10522;52.198;9.890;2023-07-28T11:01:34;3.00;;;2.80;;
20721;SDS011;10522;52.198;9.890;2023-07-28T11:04:11;4.50;;;3.00;;
20721;SDS011;10522;52.198;9.890;2023-07-28T11:06:47;4.30;;;2.70;;
20721;SDS011;10522;52.198;9.890;2023-07-28T11:09:18;2.47;;;2.23;;
20721;SDS011;10522;52.198;9.890;2023-07-28T11:11:46;2.87;;;2.67;;
20721;SDS011;10522;52.198;9.890;2023-07-28T11:14:14;3.33;;;3.03;;
20721;SDS011;10522;52.198;9.890;2023-07-28T11:16:41;9.60;;;3.53;;
20721;SDS011;10522;52.198;9.890;2023-07-28T11:19:08;3.00;;;2.70;;
20721;SDS011;10522;52.198;9.890;2023-07-28T11:21:39;4.83;;;2.40;;
20721;SDS011;10522;52.198;9.890;2023-07-28T11:24:09;2.73;;;2.40;;
20721;SDS011;10522;52.198;9.890;2023-07-28T11:26:37;6.67;;;4.30;;
20721;SDS011;10522;52.198;9.890;2023-07-28T11:29:04;2.60;;;2.40;;
20721;SDS011;10522;52.198;9.890;2023-07-28T11:31:30;2.67;;;2.40;;
20721;SDS011;10522;52.198;9.890;2023-07-28T11:33:58;3.53;;;3.20;;
20721;SDS011;10522;52.198;9.890;2023-07-28T11:36:27;2.77;;;2.57;;
20721;SDS011;10522;52.198;9.890;2023-07-28T11:38:54;3.33;;;3.00;;
20721;SDS011;10522;52.198;9.890;2023-07-28T11:41:22;6.50;;;3.17;;
20721;SDS011;10522;52.198;9.890;2023-07-28T11:43:48;3.73;;;3.37;;
20721;SDS011;10522;52.198;9.890;2023-07-28T11:46:34;6.50;;;3.30;;
20721;SDS011;10522;52.198;9.890;2023-07-28T11:49:14;3.90;;;3.50;;
20721;SDS011;10522;52.198;9.890;2023-07-28T11:51:44;3.43;;;3.13;;
20721;SDS011;10522;52.198;9.890;2023-07-28T11:54:15;3.63;;;3.33;;
20721;SDS011;10522;52.198;9.890;2023-07-28T11:56:45;4.30;;;3.63;;
20721;SDS011;10522;52.198;9.890;2023-07-28T11:59:12;5.97;;;3.33;;
20721;SDS011;10522;52.198;9.890;2023-07-28T12:01:54;4.00;;;3.60;;
20721;SDS011;10522;52.198;9.890;2023-07-28T12:04:21;4.70;;;3.13;;
20721;SDS011;10522;52.198;9.890;2023-07-28T12:07:04;4.63;;;3.17;;
20721;SDS011;10522;52.198;9.890;2023-07-28T12:12:11;5.13;;;2.77;;
20721;SDS011;10522;52.198;9.890;2023-07-28T12:14:38;2.80;;;2.60;;
20721;SDS011;10522;52.198;9.890;2023-07-28T12:17:11;3.80;;;2.70;;
20721;SDS011;10522;52.198;9.890;2023-07-28T12:22:21;3.03;;;2.20;;
20721;SDS011;10522;52.198;9.890;2023-07-28T12:24:47;3.10;;;2.50;;
20721;SDS011;10522;52.198;9.890;2023-07-28T12:27:13;5.00;;;2.73;;
20721;SDS011;10522;52.198;9.890;2023-07-28T12:29:39;4.00;;;2.77;;
20721;SDS011;10522;52.198;9.890;2023-07-28T12:32:04;3.83;;;2.50;;
20721;SDS011;10522;52.198;9.890;2023-07-28T12:34:30;2.27;;;2.17;;
20721;SDS011;10522;52.198;9.890;2023-07-28T12:36:56;2.67;;;2.30;;
20721;SDS011;10522;52.198;9.890;2023-07-28T12:39:22;2.60;;;2.23;;
20721;SDS011;10522;52.198;9.890;2023-07-28T12:41:48;6.70;;;2.70;;
20721;SDS011;10522;52.198;9.890;2023-07-28T12:44:14;2.50;;;2.17;;
20721;SDS011;10522;52.198;9.890;2023-07-28T12:46:44;5.97;;;2.60;;
20721;SDS011;10522;52.198;9.890;2023-07-28T12:49:09;8.33;;;2.37;;
20721;SDS011;10522;52.198;9.890;2023-07-28T12:51:35;2.30;;;2.10;;
20721;SDS011;10522;52.198;9.890;2023-07-28T12:54:01;3.77;;;2.20;;
20721;SDS011;10522;52.198;9.890;2023-07-28T12:56:26;3.17;;;2.70;;
20721;SDS011;10522;52.198;9.890;2023-07-28T12:58:52;3.17;;;2.73;;
20721;SDS011;10522;52.198;9.890;2023-07-28T13:01:18;2.70;;;2.50;;
20721;SDS011;10522;52.198;9.890;2023-07-28T13:03:43;2.80;;;2.60;;
20721;SDS011;10522;52.198;9.890;2023-07-28T13:06:09;3.97;;;3.57;;
20721;SDS011;10522;52.198;9.890;2023-07-28T13:08:35;5.17;;;2.73;;
20721;SDS011;10522;52.198;9.890;2023-07-28T13:11:01;4.50;;;2.53;;
20721;SDS011;10522;52.198;9.890;2023-07-28T13:13:26;2.73;;;2.50;;
20721;SDS011;10522;52.198;9.890;2023-07-28T13:15:54;3.07;;;2.80;;
20721;SDS011;10522;52.198;9.890;2023-07-28T13:18:20;2.70;;;2.50;;
20721;SDS011;10522;52.198;9.890;2023-07-28T13:20:46;4.33;;;2.60;;
20721;SDS011;10522;52.198;9.890;2023-07-28T13:23:11;2.73;;;2.47;;
20721;SDS011;10522;52.198;9.890;2023-07-28T13:25:37;3.00;;;2.70;;
20721;SDS011;10522;52.198;9.890;2023-07-28T13:28:03;3.03;;;2.60;;
20721;SDS011;10522;52.198;9.890;2023-07-28T13:30:29;3.00;;;2.47;;
20721;SDS011;10522;52.198;9.890;2023-07-28T13:32:55;3.50;;;2.90;;
20721;SDS011;10522;52.198;9.890;2023-07-28T13:35:21;4.40;;;3.37;;
20721;SDS011;10522;52.198;9.890;2023-07-28T13:37:46;3.97;;;2.67;;
20721;SDS011;10522;52.198;9.890;2023-07-28T13:40:12;3.33;;;3.00;;
20721;SDS011;10522;52.198;9.890;2023-07-28T13:42:38;3.93;;;2.93;;
20721;SDS011;10522;52.198;9.890;2023-07-28T13:45:04;3.63;;;2.60;;
20721;SDS011;10522;52.198;9.890;2023-07-28T13:47:30;12.10;;;7.73;;
20721;SDS011;10522;52.198;9.890;2023-07-28T13:49:56;4.10;;;3.30;;
20721;SDS011;10522;52.198;9.890;2023-07-28T13:52:21;3.30;;;2.67;;
20721;SDS011;10522;52.198;9.890;2023-07-28T13:54:47;8.23;;;3.00;;
20721;SDS011;10522;52.198;9.890;2023-07-28T13:57:13;2.80;;;2.60;;
20721;SDS011;10522;52.198;9.890;2023-07-28T13:59:39;6.33;;;3.10;;
20721;SDS011;10522;52.198;9.890;2023-07-28T14:02:05;13.53;;;7.70;;
20721;SDS011;10522;52.198;9.890;2023-07-28T14:04:31;7.37;;;5.30;;
20721;SDS011;10522;52.198;9.890;2023-07-28T14:06:57;3.13;;;2.87;;
20721;SDS011;10522;52.198;9.890;2023-07-28T14:09:23;3.23;;;2.93;;
20721;SDS011;10522;52.198;9.890;2023-07-28T14:11:49;3.53;;;2.70;;
20721;SDS011;10522;52.198;9.890;2023-07-28T14:14:15;2.93;;;2.70;;
20721;SDS011;10522;52.198;9.890;2023-07-28T14:16:40;8.57;;;3.47;;
20721;SDS011;10522;52.198;9.890;2023-07-28T14:19:07;2.97;;;2.67;;
20721;SDS011;10522;52.198;9.890;2023-07-28T14:21:33;5.93;;;3.10;;
20721;SDS011;10522;52.198;9.890;2023-07-28T14:23:59;6.87;;;3.07;;
20721;SDS011;10522;52.198;9.890;2023-07-28T14:26:25;4.60;;;3.13;;
20721;SDS011;10522;52.198;9.890;2023-07-28T14:28:50;4.63;;;2.93;;
20721;SDS011;10522;52.198;9.890;2023-07-28T14:31:16;3.10;;;2.80;;
20721;SDS011;10522;52.198;9.890;2023-07-28T14:33:42;3.33;;;2.93;;
20721;SDS011;10522;52.198;9.890;2023-07-28T14:36:08;3.80;;;2.40;;
20721;SDS011;10522;52.198;9.890;2023-07-28T14:38:34;3.03;;;2.73;;
20721;SDS011;10522;52.198;9.890;2023-07-28T14:40:59;3.93;;;2.67;;
20721;SDS011;10522;52.198;9.890;2023-07-28T14:43:25;3.93;;;2.60;;
20721;SDS011;10522;52.198;9.890;2023-07-28T14:45:51;5.23;;;2.97;;
20721;SDS011;10522;52.198;9.890;2023-07-28T14:48:16;3.30;;;3.00;;
20721;SDS011;10522;52.198;9.890;2023-07-28T14:50:42;3.43;;;2.90;;
20721;SDS011;10522;52.198;9.890;2023-07-28T14:55:53;4.20;;;3.30;;
20721;SDS011;10522;52.198;9.890;2023-07-28T14:58:18;6.47;;;3.43;;
20721;SDS011;10522;52.198;9.890;2023-07-28T15:00:44;4.67;;;3.33;;
20721;SDS011;10522;52.198;9.890;2023-07-28T15:03:10;3.83;;;3.50;;